sensor_id;sensor_type;location;lat;lon;timestamp;pressure;altitude;pressure_sealevel;temperature;humidity
58622;BME280;44389;51.578;5.456;2023-01-27T00:00:43;102373.53;;;3.01;100.00
58622;BME280;44389;51.578;5.456;2023-01-27T00:03:11;102372.66;;;3.00;100.00
58622;BME280;44389;51.578;5.456;2023-01-27T00:05:38;102367.56;;;3.00;100.00
58622;BME280;44389;51.578;5.456;2023-01-27T00:08:03;102370.88;;;2.99;100.00
58622;BME280;44389;51.578;5.456;2023-01-27T00:10:28;102358.91;;;2.98;100.00
58622;BME280;44389;51.578;5.456;2023-01-27T00:12:53;102353.69;;;2.96;100.00
58622;BME280;44389;51.578;5.456;2023-01-27T00:15:38;102357.75;;;2.94;100.00
58622;BME280;44389;51.578;5.456;2023-01-27T00:18:03;102359.28;;;2.92;100.00
58622;BME280;44389;51.578;5.456;2023-01-27T00:20:29;102363.09;;;2.87;100.00
58622;BME280;44389;51.578;5.456;2023-01-27T00:23:15;102368.94;;;2.86;100.00
58622;BME280;44389;51.578;5.456;2023-01-27T00:26:01;102368.69;;;2.83;100.00
58622;BME280;44389;51.578;5.456;2023-01-27T00:28:30;102361.56;;;2.79;100.00
58622;BME280;44389;51.578;5.456;2023-01-27T00:30:56;102357.22;;;2.78;100.00
58622;BME280;44389;51.578;5.456;2023-01-27T00:33:21;102354.38;;;2.75;100.00
58622;BME280;44389;51.578;5.456;2023-01-27T00:36:02;102364.44;;;2.73;100.00
58622;BME280;44389;51.578;5.456;2023-01-27T00:38:29;102366.88;;;2.72;100.00
58622;BME280;44389;51.578;5.456;2023-01-27T00:40:55;102361.53;;;2.69;100.00
58622;BME280;44389;51.578;5.456;2023-01-27T00:43:39;102357.19;;;2.68;100.00
58622;BME280;44389;51.578;5.456;2023-01-27T00:46:05;102363.78;;;2.66;100.00
58622;BME280;44389;51.578;5.456;2023-01-27T00:48:30;102373.09;;;2.65;100.00
58622;BME280;44389;51.578;5.456;2023-01-27T00:50:56;102374.59;;;2.63;100.00
58622;BME280;44389;51.578;5.456;2023-01-27T00:53:21;102371.19;;;2.62;100.00
58622;BME280;44389;51.578;5.456;2023-01-27T00:55:46;102372.81;;;2.62;100.00
58622;BME280;44389;51.578;5.456;2023-01-27T00:58:12;102380.31;;;2.60;100.00
58622;BME280;44389;51.578;5.456;2023-01-27T01:00:37;102367.47;;;2.59;100.00
58622;BME280;44389;51.578;5.456;2023-01-27T01:03:02;102373.19;;;2.56;100.00
58622;BME280;44389;51.578;5.456;2023-01-27T01:05:28;102379.78;;;2.54;100.00
58622;BME280;44389;51.578;5.456;2023-01-27T01:07:53;102380.56;;;2.53;100.00
58622;BME280;44389;51.578;5.456;2023-01-27T01:10:18;102374.56;;;2.53;100.00
58622;BME280;44389;51.578;5.456;2023-01-27T01:12:44;102377.09;;;2.53;100.00
58622;BME280;44389;51.578;5.456;2023-01-27T01:15:09;102380.41;;;2.52;100.00
58622;BME280;44389;51.578;5.456;2023-01-27T01:17:34;102384.63;;;2.51;100.00
58622;BME280;44389;51.578;5.456;2023-01-27T01:20:00;102387.16;;;2.51;100.00
58622;BME280;44389;51.578;5.456;2023-01-27T01:22:25;102387.03;;;2.50;100.00
58622;BME280;44389;51.578;5.456;2023-01-27T01:24:50;102380.03;;;2.47;100.00
58622;BME280;44389;51.578;5.456;2023-01-27T01:27:16;102385.88;;;2.46;100.00
58622;BME280;44389;51.578;5.456;2023-01-27T01:29:41;102399.34;;;2.45;100.00
58622;BME280;44389;51.578;5.456;2023-01-27T01:32:06;102403.56;;;2.44;100.00
58622;BME280;44389;51.578;5.456;2023-01-27T01:34:34;102397.56;;;2.44;100.00
58622;BME280;44389;51.578;5.456;2023-01-27T01:36:59;102400.88;;;2.43;100.00
58622;BME280;44389;51.578;5.456;2023-01-27T01:39:25;102409.28;;;2.42;100.00
58622;BME280;44389;51.578;5.456;2023-01-27T01:41:50;102403.25;;;2.41;100.00
58622;BME280;44389;51.578;5.456;2023-01-27T01:44:33;102402.63;;;2.44;100.00
58622;BME280;44389;51.578;5.456;2023-01-27T01:46:58;102404.06;;;2.40;100.00
58622;BME280;44389;51.578;5.456;2023-01-27T01:49:31;102408.22;;;2.40;100.00
58622;BME280;44389;51.578;5.456;2023-01-27T01:52:02;102400.34;;;2.37;100.00
58622;BME280;44389;51.578;5.456;2023-01-27T01:54:37;102396.88;;;2.36;100.00
58622;BME280;44389;51.578;5.456;2023-01-27T01:57:15;102398.53;;;2.36;100.00
58622;BME280;44389;51.578;5.456;2023-01-27T01:59:49;102400.06;;;2.34;100.00
58622;BME280;44389;51.578;5.456;2023-01-27T02:02:20;102405.00;;;2.32;100.00
58622;BME280;44389;51.578;5.456;2023-01-27T02:04:55;102409.97;;;2.30;100.00
58622;BME280;44389;51.578;5.456;2023-01-27T02:09:52;102403.84;;;2.28;100.00
58622;BME280;44389;51.578;5.456;2023-01-27T02:12:18;102402.13;;;2.38;100.00
58622;BME280;44389;51.578;5.456;2023-01-27T02:14:43;102399.53;;;2.27;100.00
58622;BME280;44389;51.578;5.456;2023-01-27T02:17:11;102411.22;;;2.25;100.00
58622;BME280;44389;51.578;5.456;2023-01-27T02:20:11;102402.22;;;2.29;100.00
58622;BME280;44389;51.578;5.456;2023-01-27T02:25:48;102409.41;;;2.24;100.00
58622;BME280;44389;51.578;5.456;2023-01-27T02:28:15;102400.91;;;2.24;100.00
58622;BME280;44389;51.578;5.456;2023-01-27T02:30:40;102417.06;;;2.24;100.00
58622;BME280;44389;51.578;5.456;2023-01-27T02:33:10;102416.16;;;2.24;100.00
58622;BME280;44389;51.578;5.456;2023-01-27T02:35:50;102424.69;;;2.24;100.00
58622;BME280;44389;51.578;5.456;2023-01-27T02:38:20;102415.13;;;2.22;100.00
58622;BME280;44389;51.578;5.456;2023-01-27T02:40:51;102415.13;;;2.22;100.00
58622;BME280;44389;51.578;5.456;2023-01-27T02:43:18;102424.41;;;2.21;100.00
58622;BME280;44389;51.578;5.456;2023-01-27T02:45:47;102423.50;;;2.21;100.00
58622;BME280;44389;51.578;5.456;2023-01-27T02:48:12;102417.53;;;2.20;100.00
58622;BME280;44389;51.578;5.456;2023-01-27T02:50:38;102425.91;;;2.19;100.00
58622;BME280;44389;51.578;5.456;2023-01-27T02:53:03;102421.59;;;2.18;100.00
58622;BME280;44389;51.578;5.456;2023-01-27T02:55:29;102419.81;;;2.17;100.00
58622;BME280;44389;51.578;5.456;2023-01-27T02:57:54;102415.50;;;2.16;100.00
58622;BME280;44389;51.578;5.456;2023-01-27T03:00:19;102413.69;;;2.15;100.00
58622;BME280;44389;51.578;5.456;2023-01-27T03:02:45;102425.38;;;2.13;100.00
58622;BME280;44389;51.578;5.456;2023-01-27T03:05:10;102427.91;;;2.13;100.00
58622;BME280;44389;51.578;5.456;2023-01-27T03:07:35;102431.25;;;2.12;100.00
58622;BME280;44389;51.578;5.456;2023-01-27T03:10:01;102437.06;;;2.11;100.00
58622;BME280;44389;51.578;5.456;2023-01-27T03:12:26;102439.63;;;2.11;100.00
58622;BME280;44389;51.578;5.456;2023-01-27T03:14:51;102430.19;;;2.10;100.00
58622;BME280;44389;51.578;5.456;2023-01-27T03:17:36;102426.63;;;2.08;100.00
58622;BME280;44389;51.578;5.456;2023-01-27T03:20:21;102430.81;;;2.07;100.00
58622;BME280;44389;51.578;5.456;2023-01-27T03:22:48;102433.22;;;2.06;100.00
58622;BME280;44389;51.578;5.456;2023-01-27T03:25:14;102438.44;;;2.07;100.00
58622;BME280;44389;51.578;5.456;2023-01-27T03:27:39;102435.03;;;2.07;100.00
58622;BME280;44389;51.578;5.456;2023-01-27T03:30:05;102428.16;;;2.06;100.00
58622;BME280;44389;51.578;5.456;2023-01-27T03:32:31;102430.56;;;2.04;100.00
58622;BME280;44389;51.578;5.456;2023-01-27T03:34:57;102434.59;;;2.02;100.00
58622;BME280;44389;51.578;5.456;2023-01-27T03:37:26;102440.56;;;2.03;100.00
58622;BME280;44389;51.578;5.456;2023-01-27T03:40:11;102445.66;;;2.03;100.00
58622;BME280;44389;51.578;5.456;2023-01-27T03:42:55;102446.69;;;2.05;100.00
58622;BME280;44389;51.578;5.456;2023-01-27T03:45:48;102445.81;;;2.04;100.00
58622;BME280;44389;51.578;5.456;2023-01-27T03:48:32;102450.91;;;2.04;100.00
58622;BME280;44389;51.578;5.456;2023-01-27T03:50:58;102450.75;;;2.03;100.00
58622;BME280;44389;51.578;5.456;2023-01-27T03:53:24;102451.53;;;2.02;100.00
58622;BME280;44389;51.578;5.456;2023-01-27T03:55:49;102453.16;;;2.01;100.00
58622;BME280;44389;51.578;5.456;2023-01-27T03:58:26;102465.72;;;2.00;100.00
58622;BME280;44389;51.578;5.456;2023-01-27T04:00:57;102458.84;;;1.98;100.00
58622;BME280;44389;51.578;5.456;2023-01-27T04:03:24;102460.38;;;1.96;100.00
58622;BME280;44389;51.578;5.456;2023-01-27T04:06:14;102464.69;;;1.97;100.00
58622;BME280;44389;51.578;5.456;2023-01-27T04:08:58;102453.63;;;1.97;100.00
58622;BME280;44389;51.578;5.456;2023-01-27T04:11:24;102459.59;;;1.97;100.00
58622;BME280;44389;51.578;5.456;2023-01-27T04:14:09;102464.56;;;1.96;100.00
58622;BME280;44389;51.578;5.456;2023-01-27T04:16:35;102462.94;;;1.96;100.00
58622;BME280;44389;51.578;5.456;2023-01-27T04:19:02;102456.94;;;1.96;100.00
58622;BME280;44389;51.578;5.456;2023-01-27T04:21:28;102455.28;;;1.96;100.00
58622;BME280;44389;51.578;5.456;2023-01-27T04:23:54;102455.13;;;1.95;100.00
58622;BME280;44389;51.578;5.456;2023-01-27T04:26:20;102445.56;;;1.92;100.00
58622;BME280;44389;51.578;5.456;2023-01-27T04:28:46;102456.78;;;1.94;100.00
58622;BME280;44389;51.578;5.456;2023-01-27T04:31:12;102450.03;;;1.95;100.00
58622;BME280;44389;51.578;5.456;2023-01-27T04:33:38;102463.66;;;1.95;100.00
58622;BME280;44389;51.578;5.456;2023-01-27T04:36:03;102470.56;;;1.96;100.00
58622;BME280;44389;51.578;5.456;2023-01-27T04:38:29;102465.47;;;1.96;100.00
58622;BME280;44389;51.578;5.456;2023-01-27T04:40:54;102462.94;;;1.96;100.00
58622;BME280;44389;51.578;5.456;2023-01-27T04:43:20;102466.22;;;1.95;100.00
58622;BME280;44389;51.578;5.456;2023-01-27T04:45:45;102479.94;;;1.97;100.00
58622;BME280;44389;51.578;5.456;2023-01-27T04:48:11;102464.84;;;1.99;100.00
58622;BME280;44389;51.578;5.456;2023-01-27T04:50:36;102475.16;;;2.01;100.00
58622;BME280;44389;51.578;5.456;2023-01-27T04:53:01;102470.94;;;2.01;100.00
58622;BME280;44389;51.578;5.456;2023-01-27T04:55:26;102476.94;;;2.02;100.00
58622;BME280;44389;51.578;5.456;2023-01-27T04:57:52;102476.94;;;2.02;100.00
58622;BME280;44389;51.578;5.456;2023-01-27T05:00:18;102479.31;;;2.00;100.00
58622;BME280;44389;51.578;5.456;2023-01-27T05:02:44;102474.25;;;2.00;100.00
58622;BME280;44389;51.578;5.456;2023-01-27T05:05:09;102482.66;;;1.99;100.00
58622;BME280;44389;51.578;5.456;2023-01-27T05:07:34;102485.03;;;1.97;100.00
58622;BME280;44389;51.578;5.456;2023-01-27T05:09:59;102481.59;;;1.97;100.00
58622;BME280;44389;51.578;5.456;2023-01-27T05:12:25;102492.53;;;1.96;100.00
58622;BME280;44389;51.578;5.456;2023-01-27T05:14:50;102486.56;;;1.95;100.00
58622;BME280;44389;51.578;5.456;2023-01-27T05:17:15;102484.16;;;1.97;100.00
58622;BME280;44389;51.578;5.456;2023-01-27T05:19:41;102487.44;;;1.96;100.00
58622;BME280;44389;51.578;5.456;2023-01-27T05:22:06;102493.44;;;1.96;100.00
58622;BME280;44389;51.578;5.456;2023-01-27T05:24:32;102501.19;;;1.98;100.00
58622;BME280;44389;51.578;5.456;2023-01-27T05:26:58;102491.91;;;1.98;100.00
58622;BME280;44389;51.578;5.456;2023-01-27T05:29:23;102496.38;;;2.01;100.00
58622;BME280;44389;51.578;5.456;2023-01-27T05:31:48;102495.50;;;2.01;100.00
58622;BME280;44389;51.578;5.456;2023-01-27T05:34:14;102503.25;;;2.02;100.00
58622;BME280;44389;51.578;5.456;2023-01-27T05:36:40;102504.13;;;2.03;100.00
58622;BME280;44389;51.578;5.456;2023-01-27T05:39:09;102519.69;;;2.06;100.00
58622;BME280;44389;51.578;5.456;2023-01-27T05:41:34;102507.25;;;2.09;100.00
58622;BME280;44389;51.578;5.456;2023-01-27T05:44:00;102509.19;;;2.11;100.00
58622;BME280;44389;51.578;5.456;2023-01-27T05:46:27;102511.84;;;2.13;100.00
58622;BME280;44389;51.578;5.456;2023-01-27T05:48:57;102516.19;;;2.14;100.00
58622;BME280;44389;51.578;5.456;2023-01-27T05:51:23;102511.22;;;2.16;100.00
58622;BME280;44389;51.578;5.456;2023-01-27T05:53:49;102525.75;;;2.17;100.00
58622;BME280;44389;51.578;5.456;2023-01-27T05:56:17;102519.78;;;2.16;100.00
58622;BME280;44389;51.578;5.456;2023-01-27T05:58:43;102517.22;;;2.16;100.00
58622;BME280;44389;51.578;5.456;2023-01-27T06:01:10;102523.81;;;2.14;100.00
58622;BME280;44389;51.578;5.456;2023-01-27T06:03:37;102520.53;;;2.15;100.00
58622;BME280;44389;51.578;5.456;2023-01-27T06:06:03;102522.03;;;2.13;100.00
58622;BME280;44389;51.578;5.456;2023-01-27T06:08:29;102534.00;;;2.14;100.00
58622;BME280;44389;51.578;5.456;2023-01-27T06:10:55;102519.66;;;2.14;100.00
58622;BME280;44389;51.578;5.456;2023-01-27T06:13:21;102525.63;;;2.15;100.00
58622;BME280;44389;51.578;5.456;2023-01-27T06:15:47;102520.41;;;2.13;100.00
58622;BME280;44389;51.578;5.456;2023-01-27T06:18:13;102528.16;;;2.15;100.00
58622;BME280;44389;51.578;5.456;2023-01-27T06:20:39;102533.25;;;2.15;100.00
58622;BME280;44389;51.578;5.456;2023-01-27T06:23:06;102536.84;;;2.17;100.00
58622;BME280;44389;51.578;5.456;2023-01-27T06:25:39;102542.69;;;2.16;100.00
58622;BME280;44389;51.578;5.456;2023-01-27T06:28:05;102541.75;;;2.16;100.00
58622;BME280;44389;51.578;5.456;2023-01-27T06:30:32;102541.13;;;2.18;100.00
58622;BME280;44389;51.578;5.456;2023-01-27T06:32:58;102542.81;;;2.18;100.00
58622;BME280;44389;51.578;5.456;2023-01-27T06:35:23;102548.94;;;2.20;100.00
58622;BME280;44389;51.578;5.456;2023-01-27T06:37:49;102546.53;;;2.21;100.00
58622;BME280;44389;51.578;5.456;2023-01-27T06:40:16;102543.25;;;2.22;100.00
58622;BME280;44389;51.578;5.456;2023-01-27T06:42:42;102540.81;;;2.24;100.00
58622;BME280;44389;51.578;5.456;2023-01-27T06:45:09;102538.41;;;2.25;100.00
58622;BME280;44389;51.578;5.456;2023-01-27T06:47:34;102548.59;;;2.25;100.00
58622;BME280;44389;51.578;5.456;2023-01-27T06:50:00;102544.38;;;2.26;100.00
58622;BME280;44389;51.578;5.456;2023-01-27T06:52:25;102538.41;;;2.25;100.00
58622;BME280;44389;51.578;5.456;2023-01-27T06:54:50;102544.25;;;2.24;100.00
58622;BME280;44389;51.578;5.456;2023-01-27T06:57:15;102542.63;;;2.25;100.00
58622;BME280;44389;51.578;5.456;2023-01-27T06:59:41;102541.72;;;2.24;100.00
58622;BME280;44389;51.578;5.456;2023-01-27T07:02:09;102551.00;;;2.24;100.00
58622;BME280;44389;51.578;5.456;2023-01-27T07:04:35;102545.00;;;2.23;100.00
58622;BME280;44389;51.578;5.456;2023-01-27T07:07:01;102545.16;;;2.25;100.00
58622;BME280;44389;51.578;5.456;2023-01-27T07:09:26;102540.81;;;2.24;100.00
58622;BME280;44389;51.578;5.456;2023-01-27T07:11:51;102543.50;;;2.25;100.00
58622;BME280;44389;51.578;5.456;2023-01-27T07:14:17;102545.31;;;2.26;100.00
58622;BME280;44389;51.578;5.456;2023-01-27T07:16:42;102542.25;;;2.30;100.00
58622;BME280;44389;51.578;5.456;2023-01-27T07:19:08;102551.69;;;2.32;100.00
58622;BME280;44389;51.578;5.456;2023-01-27T07:21:33;102547.63;;;2.34;100.00
58622;BME280;44389;51.578;5.456;2023-01-27T07:23:58;102552.72;;;2.34;100.00
58622;BME280;44389;51.578;5.456;2023-01-27T07:26:23;102554.50;;;2.35;100.00
58622;BME280;44389;51.578;5.456;2023-01-27T07:28:49;102554.50;;;2.35;100.00
58622;BME280;44389;51.578;5.456;2023-01-27T07:31:14;102550.47;;;2.37;100.00
58622;BME280;44389;51.578;5.456;2023-01-27T07:33:39;102558.09;;;2.37;100.00
58622;BME280;44389;51.578;5.456;2023-01-27T07:36:05;102563.19;;;2.37;100.00
58622;BME280;44389;51.578;5.456;2023-01-27T07:38:30;102562.44;;;2.38;100.00
58622;BME280;44389;51.578;5.456;2023-01-27T07:40:55;102562.44;;;2.38;100.00
58622;BME280;44389;51.578;5.456;2023-01-27T07:43:22;102564.38;;;2.40;100.00
58622;BME280;44389;51.578;5.456;2023-01-27T07:45:52;102575.41;;;2.41;100.00
58622;BME280;44389;51.578;5.456;2023-01-27T07:48:17;102568.84;;;2.43;100.00
58622;BME280;44389;51.578;5.456;2023-01-27T07:50:43;102580.78;;;2.44;100.00
58622;BME280;44389;51.578;5.456;2023-01-27T07:53:09;102574.19;;;2.46;100.00
58622;BME280;44389;51.578;5.456;2023-01-27T07:55:34;102571.66;;;2.46;100.00
58622;BME280;44389;51.578;5.456;2023-01-27T07:57:59;102581.06;;;2.47;100.00
58622;BME280;44389;51.578;5.456;2023-01-27T08:00:25;102584.38;;;2.46;100.00
58622;BME280;44389;51.578;5.456;2023-01-27T08:02:53;102582.72;;;2.46;100.00
58622;BME280;44389;51.578;5.456;2023-01-27T08:05:19;102582.72;;;2.46;100.00
58622;BME280;44389;51.578;5.456;2023-01-27T08:07:45;102576.00;;;2.47;100.00
58622;BME280;44389;51.578;5.456;2023-01-27T08:10:10;102582.88;;;2.48;100.00
58622;BME280;44389;51.578;5.456;2023-01-27T08:12:35;102579.53;;;2.49;100.00
58622;BME280;44389;51.578;5.456;2023-01-27T08:15:01;102584.63;;;2.49;100.00
58622;BME280;44389;51.578;5.456;2023-01-27T08:17:26;102586.16;;;2.47;100.00
58622;BME280;44389;51.578;5.456;2023-01-27T08:19:52;102587.19;;;2.49;100.00
58622;BME280;44389;51.578;5.456;2023-01-27T08:22:18;102588.09;;;2.50;100.00
58622;BME280;44389;51.578;5.456;2023-01-27T08:24:47;102594.19;;;2.52;100.00
58622;BME280;44389;51.578;5.456;2023-01-27T08:27:13;102591.81;;;2.53;100.00
58622;BME280;44389;51.578;5.456;2023-01-27T08:29:38;102596.91;;;2.53;100.00
58622;BME280;44389;51.578;5.456;2023-01-27T08:32:03;102595.25;;;2.54;100.00
58622;BME280;44389;51.578;5.456;2023-01-27T08:34:29;102595.38;;;2.55;100.00
58622;BME280;44389;51.578;5.456;2023-01-27T08:36:54;102596.28;;;2.56;100.00
58622;BME280;44389;51.578;5.456;2023-01-27T08:39:19;102591.34;;;2.57;100.00
58622;BME280;44389;51.578;5.456;2023-01-27T08:41:45;102597.31;;;2.58;100.00
58622;BME280;44389;51.578;5.456;2023-01-27T08:44:10;102607.63;;;2.59;100.00
58622;BME280;44389;51.578;5.456;2023-01-27T08:46:35;102605.38;;;2.62;100.00
58622;BME280;44389;51.578;5.456;2023-01-27T08:49:01;102609.72;;;2.63;100.00
58622;BME280;44389;51.578;5.456;2023-01-27T08:51:26;102610.59;;;2.64;100.00
58622;BME280;44389;51.578;5.456;2023-01-27T08:53:51;102615.69;;;2.64;100.00
58622;BME280;44389;51.578;5.456;2023-01-27T08:56:17;102631.84;;;2.64;100.00
58622;BME280;44389;51.578;5.456;2023-01-27T08:58:42;102626.75;;;2.64;100.00
58622;BME280;44389;51.578;5.456;2023-01-27T09:01:11;102636.94;;;2.64;100.00
58622;BME280;44389;51.578;5.456;2023-01-27T09:03:37;102641.13;;;2.64;100.00
58622;BME280;44389;51.578;5.456;2023-01-27T09:06:07;102643.56;;;2.62;100.00
58622;BME280;44389;51.578;5.456;2023-01-27T09:08:32;102650.44;;;2.63;100.00
58622;BME280;44389;51.578;5.456;2023-01-27T09:10:58;102642.81;;;2.63;100.00
58622;BME280;44389;51.578;5.456;2023-01-27T09:13:23;102637.97;;;2.67;100.00
58622;BME280;44389;51.578;5.456;2023-01-27T09:15:52;102638.25;;;2.70;100.00
58622;BME280;44389;51.578;5.456;2023-01-27T09:18:18;102627.59;;;2.74;100.00
58622;BME280;44389;51.578;5.456;2023-01-27T09:20:43;102633.84;;;2.77;100.00
58622;BME280;44389;51.578;5.456;2023-01-27T09:23:09;102629.91;;;2.81;100.00
58622;BME280;44389;51.578;5.456;2023-01-27T09:25:34;102630.47;;;2.87;100.00
58622;BME280;44389;51.578;5.456;2023-01-27T09:27:59;102632.84;;;2.94;100.00
58622;BME280;44389;51.578;5.456;2023-01-27T09:30:26;102640.25;;;3.02;100.00
58622;BME280;44389;51.578;5.456;2023-01-27T09:32:51;102647.81;;;3.10;100.00
58622;BME280;44389;51.578;5.456;2023-01-27T09:35:17;102643.59;;;3.11;100.00
58622;BME280;44389;51.578;5.456;2023-01-27T09:37:46;102651.88;;;3.08;100.00
58622;BME280;44389;51.578;5.456;2023-01-27T09:40:30;102652.03;;;3.10;100.00
58622;BME280;44389;51.578;5.456;2023-01-27T09:43:10;102652.16;;;3.11;100.00
58622;BME280;44389;51.578;5.456;2023-01-27T09:51:20;102660.91;;;3.05;100.00
58622;BME280;44389;51.578;5.456;2023-01-27T09:54:11;102671.56;;;3.01;100.00
58622;BME280;44389;51.578;5.456;2023-01-27T09:57:08;102672.34;;;3.00;100.00
58622;BME280;44389;51.578;5.456;2023-01-27T10:05:41;102679.63;;;2.86;100.00
58622;BME280;44389;51.578;5.456;2023-01-27T10:08:37;102684.72;;;2.86;100.00
58622;BME280;44389;51.578;5.456;2023-01-27T10:11:18;102679.91;;;2.89;100.00
58622;BME280;44389;51.578;5.456;2023-01-27T10:14:17;102678.13;;;2.88;100.00
58622;BME280;44389;51.578;5.456;2023-01-27T10:22:26;102663.53;;;3.15;100.00
58622;BME280;44389;51.578;5.456;2023-01-27T10:27:58;102665.22;;;3.25;100.00
58622;BME280;44389;51.578;5.456;2023-01-27T10:30:36;102663.47;;;3.34;100.00
58622;BME280;44389;51.578;5.456;2023-01-27T10:33:21;102667.31;;;3.39;100.00
58622;BME280;44389;51.578;5.456;2023-01-27T10:35:52;102661.72;;;3.33;100.00
58622;BME280;44389;51.578;5.456;2023-01-27T10:38:38;102659.84;;;3.41;100.00
58622;BME280;44389;51.578;5.456;2023-01-27T10:46:58;102653.94;;;3.42;99.91
58622;BME280;44389;51.578;5.456;2023-01-27T10:49:30;102662.38;;;3.41;100.00
58622;BME280;44389;51.578;5.456;2023-01-27T10:52:14;102660.84;;;3.43;100.00
58622;BME280;44389;51.578;5.456;2023-01-27T10:57:52;102655.91;;;3.55;99.82
58622;BME280;44389;51.578;5.456;2023-01-27T11:00:49;102655.53;;;3.50;100.00
58622;BME280;44389;51.578;5.456;2023-01-27T11:03:24;102656.03;;;3.46;100.00
58622;BME280;44389;51.578;5.456;2023-01-27T11:05:52;102649.47;;;3.39;100.00
58622;BME280;44389;51.578;5.456;2023-01-27T11:08:23;102667.19;;;3.38;100.00
58622;BME280;44389;51.578;5.456;2023-01-27T11:10:54;102666.66;;;3.32;99.63
58622;BME280;44389;51.578;5.456;2023-01-27T11:13:38;102662.16;;;3.29;100.00
58622;BME280;44389;51.578;5.456;2023-01-27T11:16:05;102659.56;;;3.19;99.71
58622;BME280;44389;51.578;5.456;2023-01-27T11:18:36;102659.94;;;3.13;100.00
58622;BME280;44389;51.578;5.456;2023-01-27T11:21:04;102652.16;;;3.11;100.00
58622;BME280;44389;51.578;5.456;2023-01-27T11:23:38;102642.72;;;3.10;100.00
58622;BME280;44389;51.578;5.456;2023-01-27T11:26:30;102651.66;;;3.16;100.00
58622;BME280;44389;51.578;5.456;2023-01-27T11:32:07;102646.56;;;3.16;100.00
58622;BME280;44389;51.578;5.456;2023-01-27T11:39:49;102648.19;;;3.34;100.00
58622;BME280;44389;51.578;5.456;2023-01-27T11:42:14;102645.34;;;3.50;100.00
58622;BME280;44389;51.578;5.456;2023-01-27T11:44:41;102630.59;;;3.67;100.00
58622;BME280;44389;51.578;5.456;2023-01-27T11:47:14;102640.31;;;3.71;100.00
58622;BME280;44389;51.578;5.456;2023-01-27T11:49:46;102632.16;;;3.75;100.00
58622;BME280;44389;51.578;5.456;2023-01-27T11:52:16;102634.22;;;3.79;100.00
58622;BME280;44389;51.578;5.456;2023-01-27T11:54:47;102640.06;;;3.78;99.85
58622;BME280;44389;51.578;5.456;2023-01-27T11:57:23;102642.25;;;3.73;99.86
58622;BME280;44389;51.578;5.456;2023-01-27T11:59:56;102628.53;;;3.62;99.43
58622;BME280;44389;51.578;5.456;2023-01-27T12:02:34;102634.91;;;3.57;99.30
58622;BME280;44389;51.578;5.456;2023-01-27T12:05:06;102635.81;;;3.58;99.75
58622;BME280;44389;51.578;5.456;2023-01-27T12:07:57;102637.22;;;3.65;100.00
58622;BME280;44389;51.578;5.456;2023-01-27T12:10:31;102638.50;;;3.59;99.14
58622;BME280;44389;51.578;5.456;2023-01-27T12:13:00;102639.53;;;3.72;100.00
58622;BME280;44389;51.578;5.456;2023-01-27T12:15:28;102641.06;;;3.70;99.67
58622;BME280;44389;51.578;5.456;2023-01-27T12:18:00;102632.38;;;3.68;99.06
58622;BME280;44389;51.578;5.456;2023-01-27T12:20:31;102632.97;;;3.55;98.68
58622;BME280;44389;51.578;5.456;2023-01-27T12:23:14;102627.88;;;3.55;100.00
58622;BME280;44389;51.578;5.456;2023-01-27T12:25:46;102628.47;;;3.42;99.37
58622;BME280;44389;51.578;5.456;2023-01-27T12:28:22;102626.69;;;3.41;100.00
58622;BME280;44389;51.578;5.456;2023-01-27T12:30:49;102633.06;;;3.36;99.51
58622;BME280;44389;51.578;5.456;2023-01-27T12:33:24;102627.31;;;3.38;99.94
58622;BME280;44389;51.578;5.456;2023-01-27T12:35:51;102618.13;;;3.40;99.23
58622;BME280;44389;51.578;5.456;2023-01-27T12:38:22;102615.25;;;3.46;99.10
58622;BME280;44389;51.578;5.456;2023-01-27T12:40:59;102616.88;;;3.45;99.38
58622;BME280;44389;51.578;5.456;2023-01-27T12:43:26;102613.31;;;3.43;98.43
58622;BME280;44389;51.578;5.456;2023-01-27T12:48:43;102601.88;;;3.49;98.32
58622;BME280;44389;51.578;5.456;2023-01-27T12:51:15;102607.59;;;3.56;98.30
58622;BME280;44389;51.578;5.456;2023-01-27T12:53:41;102600.25;;;3.59;97.83
58622;BME280;44389;51.578;5.456;2023-01-27T12:58:56;102600.81;;;3.76;98.62
58622;BME280;44389;51.578;5.456;2023-01-27T13:01:27;102594.44;;;3.81;96.82
58622;BME280;44389;51.578;5.456;2023-01-27T13:06:29;102596.19;;;3.82;96.76
58622;BME280;44389;51.578;5.456;2023-01-27T13:08:57;102590.63;;;3.86;97.79
58622;BME280;44389;51.578;5.456;2023-01-27T13:11:28;102592.41;;;3.98;98.46
58622;BME280;44389;51.578;5.456;2023-01-27T13:13:55;102593.63;;;3.72;96.83
58622;BME280;44389;51.578;5.456;2023-01-27T13:16:28;102600.00;;;3.67;97.03
58622;BME280;44389;51.578;5.456;2023-01-27T13:18:58;102595.16;;;3.59;97.16
58622;BME280;44389;51.578;5.456;2023-01-27T13:21:32;102588.25;;;3.58;97.60
58622;BME280;44389;51.578;5.456;2023-01-27T13:24:01;102594.09;;;3.57;97.98
58622;BME280;44389;51.578;5.456;2023-01-27T13:26:30;102596.31;;;3.63;97.20
58622;BME280;44389;51.578;5.456;2023-01-27T13:31:44;102595.53;;;3.74;97.52
58622;BME280;44389;51.578;5.456;2023-01-27T13:37:12;102591.00;;;3.91;98.40
58622;BME280;44389;51.578;5.456;2023-01-27T13:45:01;102594.69;;;3.84;96.64
58622;BME280;44389;51.578;5.456;2023-01-27T13:47:34;102599.25;;;3.78;97.20
58622;BME280;44389;51.578;5.456;2023-01-27T13:50:23;102603.22;;;3.85;97.75
58622;BME280;44389;51.578;5.456;2023-01-27T13:52:53;102602.97;;;3.82;96.59
58622;BME280;44389;51.578;5.456;2023-01-27T13:55:25;102600.28;;;3.80;96.96
58622;BME280;44389;51.578;5.456;2023-01-27T14:00:57;102596.47;;;3.85;96.78
58622;BME280;44389;51.578;5.456;2023-01-27T14:03:44;102596.72;;;3.88;96.79
58622;BME280;44389;51.578;5.456;2023-01-27T14:06:19;102596.84;;;3.90;97.25